Time;durP1;ratioP1;P1;durP2;ratioP2;P2;SDS_P1;SDS_P2;PMS_P1;PMS_P2;Temp;Humidity;BMP_temperature;BMP_pressure;BME280_temperature;BME280_humidity;BME280_pressure;Samples;Min_cycle;Max_cycle;Signal;HPM_P1;HPM_P2
2021/04/23 00:02:15;;;;;;;11.50;2.41;;;;;;;6.79;54.15;100188.34;2007221;79;42514;-85
2021/04/23 00:05:17;;;;;;;6.75;1.85;;;;;;;6.65;54.45;100182.91;2007063;81;20193;-81
2021/04/23 00:08:20;;;;;;;7.00;2.11;;;;;;;6.48;55.18;100177.31;2003662;81;20381;-83
2021/04/23 00:11:32;;;;;;;9.13;2.11;;;;;;;6.18;56.26;100173.97;2003279;81;20327;-83
2021/04/23 00:17:52;;;;;;;6.57;2.00;;;;;;;5.79;57.36;100178.91;2028520;71;20809;-82
2021/04/23 00:20:54;;;;;;;5.85;1.99;;;;;;;5.69;57.78;100170.91;2004660;81;20406;-83
2021/04/23 00:23:58;;;;;;;10.15;2.13;;;;;;;5.54;59.09;100175.63;2003487;81;20352;-84
2021/04/23 00:27:00;;;;;;;6.75;2.49;;;;;;;5.34;59.99;100179.34;2008264;81;20316;-83
2021/04/23 00:30:05;;;;;;;8.49;2.63;;;;;;;5.09;60.19;100172.59;1999353;81;20311;-82
2021/04/23 00:33:07;;;;;;;4.10;1.80;;;;;;;4.95;60.84;100182.47;2004216;79;20328;-82
2021/04/23 00:36:09;;;;;;;5.38;2.24;;;;;;;4.88;61.02;100171.97;2001456;81;20337;-86
2021/04/23 00:39:11;;;;;;;4.55;1.88;;;;;;;4.81;61.53;100169.19;2005244;81;20335;-81
2021/04/23 00:42:13;;;;;;;6.15;2.13;;;;;;;4.70;62.35;100164.53;2001175;81;20344;-83
2021/04/23 00:45:18;;;;;;;7.19;2.03;;;;;;;4.63;62.72;100165.16;2003950;81;20359;-82
2021/04/23 00:48:22;;;;;;;6.53;2.58;;;;;;;4.52;62.82;100165.72;2002823;81;20319;-83
2021/04/23 00:51:28;;;;;;;4.56;2.03;;;;;;;4.52;62.92;100167.41;2011503;81;20341;-83
2021/04/23 00:54:30;;;;;;;4.30;1.98;;;;;;;4.45;63.52;100168.88;2006598;81;20349;-83
2021/04/23 00:57:32;;;;;;;7.29;2.00;;;;;;;4.41;63.69;100167.03;1997453;81;20319;-83
2021/04/23 01:00:33;;;;;;;9.55;2.16;;;;;;;4.31;64.24;100170.16;2000786;81;20337;-81
2021/04/23 01:03:36;;;;;;;4.84;2.00;;;;;;;4.23;64.18;100164.75;1997284;81;20376;-81
2021/04/23 01:06:38;;;;;;;5.46;2.20;;;;;;;4.16;64.15;100173.09;2000909;81;20341;-81
2021/04/23 01:09:39;;;;;;;6.78;2.53;;;;;;;4.09;64.43;100171.09;1999057;81;20320;-81
2021/04/23 01:12:41;;;;;;;7.19;2.64;;;;;;;4.03;64.95;100176.06;2000029;81;20341;-81
2021/04/23 01:15:43;;;;;;;6.25;2.26;;;;;;;3.96;65.15;100173.22;1999441;81;20320;-81
2021/04/23 01:18:46;;;;;;;7.00;2.36;;;;;;;3.89;64.95;100175.56;2001249;81;20341;-82
2021/04/23 01:21:50;;;;;;;9.00;2.29;;;;;;;3.82;64.76;100176.19;2000521;81;20324;-81
2021/04/23 01:24:52;;;;;;;4.47;2.06;;;;;;;3.76;65.07;100181.09;1999879;81;20328;-81
2021/04/23 01:27:54;;;;;;;7.15;2.34;;;;;;;3.72;65.24;100186.94;2001209;81;20335;-81
2021/04/23 01:30:57;;;;;;;4.82;2.39;;;;;;;3.67;65.54;100182.47;2000807;80;21041;-81
2021/04/23 01:34:07;;;;;;;5.28;2.00;;;;;;;3.58;65.81;100189.00;2001093;81;20377;-82
2021/04/23 01:37:09;;;;;;;5.51;2.16;;;;;;;3.52;66.37;100185.34;2003449;81;20353;-81
2021/04/23 01:40:12;;;;;;;5.26;1.85;;;;;;;3.44;66.41;100189.34;1998944;81;20345;-82
2021/04/23 01:43:15;;;;;;;4.74;2.10;;;;;;;3.31;67.14;100185.44;2004296;81;20337;-83
2021/04/23 01:46:18;;;;;;;7.15;2.66;;;;;;;3.18;67.48;100181.53;2012692;81;20337;-82
2021/04/23 01:49:22;;;;;;;6.09;2.06;;;;;;;3.12;67.41;100191.56;2003914;81;20349;-82
2021/04/23 01:52:24;;;;;;;6.54;2.30;;;;;;;3.06;67.20;100196.47;1998663;81;20319;-82
2021/04/23 01:55:26;;;;;;;6.44;2.13;;;;;;;3.03;67.23;100196.34;1997699;81;20312;-80
2021/04/23 01:58:29;;;;;;;4.36;2.24;;;;;;;2.99;67.31;100197.91;1997900;81;20341;-80
2021/04/23 02:01:32;;;;;;;9.86;2.06;;;;;;;2.95;67.31;100196.06;1995355;81;20353;-80
2021/04/23 02:04:33;;;;;;;6.56;3.05;;;;;;;2.92;67.68;100206.22;1996345;81;20339;-80
2021/04/23 02:07:36;;;;;;;7.25;2.15;;;;;;;2.91;68.04;100208.72;1995964;81;20320;-80
2021/04/23 02:10:47;;;;;;;7.50;2.85;;;;;;;2.88;68.12;100211.16;1997204;81;20360;-81
2021/04/23 02:13:51;;;;;;;7.91;2.96;;;;;;;2.84;67.91;100212.69;1996211;81;20389;-81
2021/04/23 02:16:54;;;;;;;3.24;1.92;;;;;;;2.85;68.03;100214.44;1997321;79;21502;-80
2021/04/23 02:19:55;;;;;;;5.65;2.22;;;;;;;2.83;68.09;100220.34;1996333;81;20714;-80
2021/04/23 02:22:59;;;;;;;5.43;2.28;;;;;;;2.79;68.17;100223.59;1996763;81;20347;-79
2021/04/23 02:26:02;;;;;;;6.40;1.98;;;;;;;2.70;68.30;100216.44;1995385;81;20319;-81
2021/04/23 02:29:06;;;;;;;7.14;3.17;;;;;;;2.64;68.43;100216.16;1996652;81;20328;-80
2021/04/23 02:32:07;;;;;;;4.40;1.88;;;;;;;2.57;68.55;100229.56;1993052;79;23062;-80
2021/04/23 02:35:12;;;;;;;5.31;2.31;;;;;;;2.51;68.65;100227.59;1994129;81;20524;-81
2021/04/23 02:38:14;;;;;;;6.35;2.31;;;;;;;2.47;68.88;100229.97;1996436;81;20343;-79
2021/04/23 02:41:17;;;;;;;6.00;2.03;;;;;;;2.42;68.87;100229.81;1992655;81;20455;-80
2021/04/23 02:44:19;;;;;;;5.35;2.16;;;;;;;2.37;68.96;100218.50;2002647;81;20418;-82
2021/04/23 02:47:21;;;;;;;5.88;2.33;;;;;;;2.24;69.36;100229.03;1998942;80;21697;-80
2021/04/23 02:50:26;;;;;;;8.68;2.35;;;;;;;2.16;69.63;100225.28;2000315;81;20369;-86
2021/04/23 02:53:28;;;;;;;6.61;2.69;;;;;;;2.12;69.74;100229.38;1993260;81;20353;-81
2021/04/23 02:56:32;;;;;;;7.10;2.84;;;;;;;2.08;69.81;100233.50;1994727;81;20337;-81
2021/04/23 02:59:33;;;;;;;6.54;2.74;;;;;;;2.05;69.54;100238.50;1998087;81;20349;-81
2021/04/23 03:02:35;;;;;;;6.06;2.29;;;;;;;2.01;69.74;100239.19;1999389;81;20788;-82
2021/04/23 03:05:39;;;;;;;4.32;2.59;;;;;;;1.98;69.99;100236.50;1998970;81;20367;-81
2021/04/23 03:08:41;;;;;;;4.36;1.91;;;;;;;1.98;70.08;100240.75;1999634;81;20347;-82
2021/04/23 03:11:44;;;;;;;8.88;2.46;;;;;;;1.94;70.12;100234.59;2002638;81;20349;-82
2021/04/23 03:14:46;;;;;;;4.39;2.40;;;;;;;1.91;70.26;100238.72;2000283;81;20343;-82
2021/04/23 03:17:50;;;;;;;6.39;2.17;;;;;;;1.88;70.33;100242.00;1993168;79;21777;-81
2021/04/23 03:20:53;;;;;;;6.90;2.75;;;;;;;1.79;70.65;100236.47;1994978;81;20329;-82
2021/04/23 03:23:56;;;;;;;6.10;2.53;;;;;;;1.75;70.71;100243.16;1992091;82;20392;-81
2021/04/23 03:26:57;;;;;;;5.70;2.38;;;;;;;1.65;71.22;100242.69;1990842;82;20351;-81
2021/04/23 03:30:00;;;;;;;6.47;2.71;;;;;;;1.63;71.10;100246.88;1993345;81;20313;-82
2021/04/23 03:33:03;;;;;;;3.65;2.49;;;;;;;1.57;71.55;100244.00;1995753;79;26403;-82
2021/04/23 03:36:09;;;;;;;8.61;3.04;;;;;;;1.51;71.29;100247.19;1995360;81;20336;-81
2021/04/23 03:39:12;;;;;;;4.75;3.05;;;;;;;1.46;71.38;100248.66;1993039;81;20325;-82
2021/04/23 03:42:13;;;;;;;6.85;2.60;;;;;;;1.47;71.75;100246.19;1996870;81;20325;-82
2021/04/23 03:45:18;;;;;;;4.69;2.17;;;;;;;1.47;71.95;100247.84;1992498;81;20358;-81
2021/04/23 03:48:20;;;;;;;4.26;2.45;;;;;;;1.48;72.29;100245.38;1994917;81;20325;-82
2021/04/23 03:51:23;;;;;;;9.13;2.46;;;;;;;1.47;72.41;100245.31;1993971;81;20441;-81
2021/04/23 03:54:24;;;;;;;6.43;2.59;;;;;;;1.45;72.19;100246.91;1991413;81;20346;-81
2021/04/23 03:57:26;;;;;;;5.00;2.00;;;;;;;1.43;71.97;100251.06;1994728;81;20394;-81
2021/04/23 04:00:53;;;;;;;5.18;2.40;;;;;;;1.39;71.90;100252.59;1989049;79;20341;-80
2021/04/23 04:03:55;;;;;;;5.47;2.56;;;;;;;1.35;71.71;100250.72;1987828;81;20328;-82
2021/04/23 04:06:58;;;;;;;6.96;2.21;;;;;;;1.26;71.76;100260.53;1991266;81;20438;-80
2021/04/23 04:10:00;;;;;;;5.66;2.47;;;;;;;1.21;71.93;100260.31;1988945;81;20370;-81
2021/04/23 04:13:03;;;;;;;5.91;2.54;;;;;;;1.16;72.11;100258.34;1991791;81;20344;-82
2021/04/23 04:16:05;;;;;;;9.45;2.54;;;;;;;1.05;72.58;100260.38;1991298;79;21817;-81
2021/04/23 04:19:07;;;;;;;6.94;2.80;;;;;;;0.98;72.78;100250.69;1997198;81;20456;-81
2021/04/23 04:22:10;;;;;;;5.20;2.76;;;;;;;0.97;73.06;100254.06;2002129;81;20843;-82
2021/04/23 04:25:25;;;;;;;4.97;2.67;;;;;;;0.98;72.94;100252.38;1998572;81;20355;-82
2021/04/23 04:28:29;;;;;;;5.28;2.56;;;;;;;0.97;72.68;100260.84;2000792;81;20320;-81
2021/04/23 04:31:31;;;;;;;7.82;2.79;;;;;;;0.95;72.64;100258.22;1994527;79;21576;-81
2021/04/23 04:34:33;;;;;;;6.18;2.65;;;;;;;0.89;73.25;100260.47;1999652;81;20359;-82
2021/04/23 04:37:35;;;;;;;5.60;2.70;;;;;;;0.90;73.24;100260.56;1997311;81;20320;-82
2021/04/23 04:40:39;;;;;;;8.98;2.74;;;;;;;0.93;73.01;100259.81;2003119;81;20422;-82
2021/04/23 04:43:41;;;;;;;5.96;3.17;;;;;;;0.94;72.96;100274.38;1998791;81;20353;-81
2021/04/23 04:46:43;;;;;;;5.11;2.64;;;;;;;0.92;73.26;100264.88;1998511;79;21885;-80
2021/04/23 04:49:45;;;;;;;8.90;3.09;;;;;;;0.92;73.28;100267.44;2001596;81;20427;-81
2021/04/23 04:52:46;;;;;;;9.64;2.76;;;;;;;0.94;73.31;100278.59;1998375;81;20327;-81
2021/04/23 04:55:51;;;;;;;4.59;2.46;;;;;;;0.98;73.26;100281.38;1998010;81;20367;-81
2021/04/23 04:58:53;;;;;;;8.21;2.66;;;;;;;1.04;73.75;100281.66;1997849;81;20324;-81
2021/04/23 05:01:54;;;;;;;7.59;3.14;;;;;;;1.14;73.94;100290.66;1990301;80;20649;-80
2021/04/23 05:04:56;;;;;;;7.31;3.01;;;;;;;1.20;74.10;100288.38;1993401;81;20331;-80
2021/04/23 05:07:58;;;;;;;9.19;3.08;;;;;;;1.24;73.88;100295.38;1990760;81;20369;-80
2021/04/23 05:11:00;;;;;;;7.57;4.46;;;;;;;1.28;74.17;100291.31;1996070;81;20316;-81
2021/04/23 05:14:02;;;;;;;6.60;2.49;;;;;;;1.33;73.92;100300.06;1995051;81;20331;-73
2021/04/23 05:17:03;;;;;;;5.53;2.50;;;;;;;1.37;73.55;100305.38;1985787;79;20361;-73
2021/04/23 05:20:07;;;;;;;7.55;2.97;;;;;;;1.43;73.33;100307.34;1986116;81;20723;-73
2021/04/23 05:23:08;;;;;;;4.84;2.38;;;;;;;1.49;73.29;100295.75;1985909;81;20770;-74
2021/04/23 05:26:10;;;;;;;6.05;2.46;;;;;;;1.59;73.36;100302.13;1985949;81;20374;-73
2021/04/23 05:29:12;;;;;;;7.32;2.92;;;;;;;1.69;73.44;100304.31;1986668;81;20316;-73
2021/04/23 05:32:13;;;;;;;4.85;2.71;;;;;;;1.79;73.32;100318.41;1985782;78;20359;-72
2021/04/23 05:35:19;;;;;;;6.63;2.79;;;;;;;1.91;73.24;100311.28;1985891;81;20328;-73
2021/04/23 05:38:21;;;;;;;4.25;2.76;;;;;;;2.06;73.23;100317.09;1985392;81;20381;-72
2021/04/23 05:41:22;;;;;;;7.24;2.96;;;;;;;2.20;73.36;100314.25;1985285;81;20373;-73
2021/04/23 05:44:24;;;;;;;4.65;2.55;;;;;;;2.67;73.13;100319.72;1986460;81;20320;-73
2021/04/23 05:47:26;;;;;;;8.66;3.17;;;;;;;3.84;70.05;100315.81;1985588;79;21390;-73
2021/04/23 05:50:28;;;;;;;7.25;3.00;;;;;;;4.43;67.73;100314.53;1986684;81;20343;-73
2021/04/23 05:53:29;;;;;;;5.56;2.76;;;;;;;4.73;66.60;100313.84;1986930;81;20439;-75
2021/04/23 05:56:31;;;;;;;3.90;2.55;;;;;;;4.99;65.63;100317.25;1985842;81;20352;-72
2021/04/23 05:59:33;;;;;;;10.54;3.09;;;;;;;5.22;64.81;100315.44;1987084;81;20421;-73
2021/04/23 06:02:35;;;;;;;5.88;3.04;;;;;;;5.47;64.06;100308.53;1985674;79;27923;-75
2021/04/23 06:05:37;;;;;;;6.50;2.78;;;;;;;5.79;63.20;100312.91;1986668;81;20251;-74
2021/04/23 06:08:40;;;;;;;6.81;3.54;;;;;;;6.05;62.34;100314.56;1987351;81;20202;-74
2021/04/23 06:11:43;;;;;;;5.34;2.84;;;;;;;6.39;61.52;100316.38;1989298;81;20201;-76
2021/04/23 06:14:45;;;;;;;10.11;3.50;;;;;;;6.65;60.56;100310.22;1987025;81;20179;-74
2021/04/23 06:17:47;;;;;;;6.45;3.20;;;;;;;6.90;59.55;100318.56;1986197;79;28835;-74
2021/04/23 06:20:49;;;;;;;5.18;3.30;;;;;;;7.27;58.88;100318.63;1986471;81;20196;-74
2021/04/23 06:23:51;;;;;;;6.00;3.45;;;;;;;7.65;58.25;100318.63;1987024;81;20680;-75
2021/04/23 06:26:53;;;;;;;11.13;3.55;;;;;;;8.05;56.91;100317.75;1986188;81;20608;-74
2021/04/23 06:29:54;;;;;;;9.98;4.13;;;;;;;8.45;55.59;100316.03;1986498;81;20205;-74
2021/04/23 06:32:59;;;;;;;9.41;3.20;;;;;;;8.95;55.17;100316.03;1985841;79;22911;-73
2021/04/23 06:36:03;;;;;;;11.93;4.25;;;;;;;9.36;54.20;100320.19;1986761;81;20179;-72
2021/04/23 06:39:13;;;;;;;10.95;3.38;;;;;;;9.73;53.16;100310.34;1986978;81;20214;-73
2021/04/23 06:42:14;;;;;;;8.81;3.74;;;;;;;9.93;52.46;100321.84;1986732;81;21091;-73
2021/04/23 06:45:19;;;;;;;9.13;3.64;;;;;;;10.08;52.09;100321.19;1985607;79;25241;-72
2021/04/23 06:48:23;;;;;;;13.24;4.88;;;;;;;10.35;52.09;100328.44;1986944;81;20293;-72
2021/04/23 06:51:25;;;;;;;11.64;3.95;;;;;;;10.67;51.43;100331.41;1986536;81;20163;-75
2021/04/23 06:54:27;;;;;;;13.41;4.31;;;;;;;10.89;49.52;100327.28;1987517;81;20947;-74
2021/04/23 06:57:28;;;;;;;14.39;4.10;;;;;;;11.25;48.92;100331.91;1986472;81;20196;-74
2021/04/23 07:00:33;;;;;;;9.91;4.21;;;;;;;11.32;46.67;100336.34;1985847;79;46192;-76
2021/04/23 07:03:35;;;;;;;12.04;4.41;;;;;;;11.53;46.87;100332.13;1986599;81;21029;-75
2021/04/23 07:06:39;;;;;;;16.13;5.78;;;;;;;11.70;45.78;100336.59;1987099;81;20206;-75
2021/04/23 07:09:41;;;;;;;16.30;5.00;;;;;;;12.02;45.60;100330.69;1986959;81;20176;-77
2021/04/23 07:12:43;;;;;;;15.79;4.89;;;;;;;12.15;45.29;100339.44;1986411;81;20168;-79
2021/04/23 07:15:45;;;;;;;16.85;5.63;;;;;;;12.44;45.01;100331.75;1986815;79;105551;-75
2021/04/23 07:18:46;;;;;;;12.21;4.20;;;;;;;12.64;43.81;100336.16;1988563;81;20180;-75
2021/04/23 07:21:49;;;;;;;15.18;4.36;;;;;;;12.75;43.52;100341.41;1987441;81;20765;-76
2021/04/23 07:24:51;;;;;;;16.46;4.85;;;;;;;13.06;42.47;100339.69;1986582;81;20204;-76
2021/04/23 07:27:53;;;;;;;14.69;4.47;;;;;;;13.29;40.96;100340.63;1986676;81;20297;-75
2021/04/23 07:30:54;;;;;;;14.06;4.50;;;;;;;13.33;41.60;100340.59;1982770;79;102382;-75
2021/04/23 07:33:57;;;;;;;9.85;3.80;;;;;;;13.52;41.15;100347.56;1982163;81;21125;-76
2021/04/23 07:36:59;;;;;;;11.68;3.44;;;;;;;13.88;40.61;100344.00;1981965;81;20168;-76
2021/04/23 07:40:06;;;;;;;9.64;3.44;;;;;;;14.13;39.45;100336.94;1981440;81;20214;-75
2021/04/23 07:43:08;;;;;;;7.25;2.88;;;;;;;14.32;39.51;100343.84;1982199;81;20204;-76
2021/04/23 07:46:30;;;;;;;7.93;2.74;;;;;;;14.63;38.75;100343.72;1982602;79;58702;-77
2021/04/23 07:49:32;;;;;;;9.70;3.05;;;;;;;14.77;38.07;100334.06;1989924;81;20183;-76
2021/04/23 07:52:51;;;;;;;6.04;2.64;;;;;;;14.98;37.15;100327.81;1986769;81;20325;-75
2021/04/23 07:55:53;;;;;;;10.06;2.83;;;;;;;15.23;36.81;100334.59;1985909;81;20164;-76
2021/04/23 07:58:55;;;;;;;8.01;2.63;;;;;;;15.40;35.88;100323.97;1985492;81;20194;-76
2021/04/23 08:01:57;;;;;;;7.64;2.72;;;;;;;15.41;36.01;100325.69;1985810;79;47885;-75
2021/04/23 08:04:59;;;;;;;7.68;2.99;;;;;;;15.58;35.69;100328.16;1986623;81;20253;-74
2021/04/23 08:08:23;;;;;;;10.64;3.11;;;;;;;15.60;35.13;100323.81;1987065;81;20724;-74
2021/04/23 08:11:26;;;;;;;9.27;3.06;;;;;;;15.82;34.77;100322.72;1987072;81;20205;-74
2021/04/23 08:14:40;;;;;;;6.84;3.03;;;;;;;15.95;34.48;100328.69;1986816;81;20286;-76
2021/04/23 08:17:43;;;;;;;9.14;3.59;;;;;;;16.06;34.69;100326.81;1986268;79;38885;-74
2021/04/23 08:20:45;;;;;;;7.15;3.00;;;;;;;16.05;33.86;100329.47;1986696;81;20691;-75
2021/04/23 08:23:47;;;;;;;10.65;3.30;;;;;;;16.07;34.12;100325.94;1986016;81;20217;-75
2021/04/23 08:26:50;;;;;;;14.54;3.49;;;;;;;16.29;34.57;100321.28;1985961;81;20418;-74
2021/04/23 08:29:54;;;;;;;7.45;3.33;;;;;;;16.48;33.88;100327.16;1986554;81;20211;-74
2021/04/23 08:32:58;;;;;;;9.55;3.25;;;;;;;16.66;33.15;100323.41;1984294;79;81552;-75
2021/04/23 08:36:01;;;;;;;8.00;3.50;;;;;;;16.80;33.29;100318.88;1986469;81;20179;-74
2021/04/23 08:39:06;;;;;;;10.93;3.04;;;;;;;16.64;32.92;100326.06;1986832;81;20206;-76
2021/04/23 08:42:08;;;;;;;9.73;3.42;;;;;;;16.77;32.66;100321.53;1985880;81;20233;-76
2021/04/23 08:45:15;;;;;;;11.36;3.50;;;;;;;16.85;31.83;100322.28;1985570;81;20282;-76
2021/04/23 08:48:17;;;;;;;9.59;3.33;;;;;;;17.01;32.79;100317.66;1985864;78;40596;-76
2021/04/23 08:51:21;;;;;;;9.79;3.99;;;;;;;17.18;32.12;100323.50;1986168;81;20195;-76
2021/04/23 08:54:26;;;;;;;8.84;3.89;;;;;;;17.24;31.89;100317.31;1986956;81;20965;-76
2021/04/23 08:57:28;;;;;;;6.00;2.96;;;;;;;17.18;31.79;100323.50;1987138;81;20199;-76
2021/04/23 09:00:30;;;;;;;7.21;3.10;;;;;;;17.36;32.18;100327.59;1985084;79;30455;-76
2021/04/23 09:03:32;;;;;;;7.19;3.05;;;;;;;17.33;32.17;100325.88;1987230;81;20176;-77
2021/04/23 09:06:34;;;;;;;5.34;2.61;;;;;;;17.26;32.17;100319.03;1986615;81;20663;-76
2021/04/23 09:09:42;;;;;;;9.10;3.10;;;;;;;17.49;32.18;100323.88;1986613;81;20651;-77
2021/04/23 09:13:07;;;;;;;10.00;3.11;;;;;;;17.53;30.92;100318.53;1986411;81;20199;-74
2021/04/23 09:16:09;;;;;;;7.40;3.21;;;;;;;17.52;31.77;100316.78;1986364;79;22127;-78
2021/04/23 09:19:27;;;;;;;13.00;3.28;;;;;;;17.48;30.53;100312.50;1988826;81;20247;-84
2021/04/23 09:22:32;;;;;;;5.78;2.76;;;;;;;17.60;31.61;100315.81;1989235;81;20681;-79
2021/04/23 09:25:44;;;;;;;5.55;2.84;;;;;;;17.97;30.77;100313.38;1990597;81;20184;-84
2021/04/23 09:28:46;;;;;;;6.88;3.15;;;;;;;18.05;30.18;100317.56;1988661;81;20176;-80
2021/04/23 09:31:47;;;;;;;8.30;2.65;;;;;;;17.91;29.91;100310.84;1987938;79;24118;-81
2021/04/23 09:34:53;;;;;;;6.18;2.85;;;;;;;18.29;30.04;100316.19;1987925;81;20207;-80
2021/04/23 09:37:59;;;;;;;9.89;3.01;;;;;;;18.18;30.24;100318.19;1990257;81;20167;-80
2021/04/23 09:41:18;;;;;;;7.60;2.88;;;;;;;17.84;29.57;100307.50;1987523;81;20179;-79
2021/04/23 09:44:45;;;;;;;5.32;2.21;;;;;;;17.88;31.00;100314.41;1988578;81;20192;-79
2021/04/23 09:47:48;;;;;;;14.45;2.85;;;;;;;18.27;28.77;100310.09;1987058;78;24502;-77
2021/04/23 09:50:51;;;;;;;10.50;2.70;;;;;;;18.09;28.62;100300.84;1986663;81;20286;-80
2021/04/23 09:57:15;;;;;;;4.88;2.11;;;;;;;18.44;29.11;100307.13;1973038;82;20173;-81
2021/04/23 10:00:24;;;;;;;4.11;2.48;;;;;;;18.50;28.75;100300.88;1976301;82;20207;-80
2021/04/23 10:03:33;;;;;;;5.81;2.16;;;;;;;18.65;28.04;100293.50;1983068;81;20230;-81
2021/04/23 10:06:37;;;;;;;5.18;1.94;;;;;;;18.76;28.07;100292.41;1987252;82;20172;-76
2021/04/23 10:10:03;;;;;;;5.88;2.14;;;;;;;19.01;28.88;100290.91;1983281;81;20185;-77
2021/04/23 10:13:09;;;;;;;6.47;2.36;;;;;;;19.21;27.51;100283.41;1981844;82;20222;-76
2021/04/23 10:16:11;;;;;;;8.93;2.35;;;;;;;19.16;27.29;100284.41;1981564;81;20200;-75
2021/04/23 10:19:12;;;;;;;5.86;2.60;;;;;;;18.91;26.66;100284.16;1981904;82;20160;-75
2021/04/23 10:22:14;;;;;;;6.94;2.24;;;;;;;19.14;26.95;100291.47;1983379;81;20675;-81
2021/04/23 10:25:18;;;;;;;6.63;2.54;;;;;;;19.38;27.05;100288.22;1991244;81;20326;-79
2021/04/23 10:28:23;;;;;;;7.75;2.84;;;;;;;19.64;27.00;100292.84;1985393;81;20188;-79
2021/04/23 10:31:27;;;;;;;6.79;2.24;;;;;;;19.30;24.94;100285.78;1980067;79;147407;-77
2021/04/23 10:34:35;;;;;;;7.45;2.01;;;;;;;19.44;26.91;100289.84;1977861;82;20181;-77
2021/04/23 10:37:42;;;;;;;6.04;2.20;;;;;;;19.61;26.82;100285.03;1978590;82;20199;-77
2021/04/23 10:40:51;;;;;;;8.09;2.17;;;;;;;19.83;26.40;100280.88;1977594;82;20258;-77
2021/04/23 10:43:54;;;;;;;6.00;1.90;;;;;;;19.94;26.03;100275.31;1979203;82;20758;-77
2021/04/23 10:46:56;;;;;;;6.30;2.51;;;;;;;19.94;25.63;100275.31;1980585;79;42514;-78
2021/04/23 10:50:08;;;;;;;10.68;2.26;;;;;;;19.83;26.26;100275.63;1982863;81;20271;-78
2021/04/23 10:53:17;;;;;;;7.78;2.49;;;;;;;19.83;26.73;100272.97;1983140;81;20198;-78
2021/04/23 10:56:34;;;;;;;4.30;2.05;;;;;;;19.86;26.49;100257.06;1983126;81;20180;-77
2021/04/23 10:59:36;;;;;;;4.75;2.09;;;;;;;19.96;25.69;100260.31;1983077;82;20989;-78
2021/04/23 11:02:38;;;;;;;5.56;2.31;;;;;;;19.72;24.63;100261.00;1977554;79;24998;-78
2021/04/23 11:05:40;;;;;;;6.50;2.85;;;;;;;19.86;23.89;100256.22;1978591;82;20204;-78
2021/04/23 11:09:00;;;;;;;6.78;2.58;;;;;;;19.69;22.82;100258.44;1978028;82;20185;-78
2021/04/23 11:12:08;;;;;;;4.69;2.05;;;;;;;19.61;23.32;100259.53;1978290;82;20184;-78
2021/04/23 11:15:12;;;;;;;6.25;1.92;;;;;;;19.67;24.28;100269.03;1978479;82;20218;-78
2021/04/23 11:18:26;;;;;;;6.76;1.94;;;;;;;19.88;24.87;100259.66;1982846;79;25309;-77
2021/04/23 11:21:31;;;;;;;4.78;1.64;;;;;;;20.20;23.14;100256.09;1983475;81;20595;-77
2021/04/23 11:24:33;;;;;;;5.69;1.80;;;;;;;20.51;24.59;100259.56;1983256;81;20257;-78
2021/04/23 11:28:02;;;;;;;3.89;1.81;;;;;;;20.62;22.82;100261.84;1983462;81;20582;-78
2021/04/23 11:31:09;;;;;;;3.46;1.41;;;;;;;20.41;21.71;100254.59;1980240;80;26823;-77
2021/04/23 11:34:30;;;;;;;5.55;1.61;;;;;;;20.28;22.63;100243.53;1979046;82;20853;-75
2021/04/23 11:37:48;;;;;;;6.00;1.50;;;;;;;20.72;23.78;100255.38;1978610;82;20600;-77
2021/04/23 11:41:15;;;;;;;7.36;1.58;;;;;;;20.80;23.59;100240.13;1978558;82;20973;-75
2021/04/23 11:44:40;;;;;;;;;;;;;;;21.16;23.89;100239.81;1984568;82;20291;-82
2021/04/23 11:47:55;;;;;;;4.09;1.55;;;;;;;21.33;21.93;100229.56;2003221;71;1107857;-84
2021/04/23 11:51:13;;;;;;;3.41;1.60;;;;;;;21.76;23.60;100229.84;2001273;71;20229;-83
2021/04/23 11:54:25;;;;;;;8.06;1.80;;;;;;;21.79;22.32;100235.84;2001832;81;20179;-84
2021/04/23 11:57:29;;;;;;;3.96;1.45;;;;;;;21.62;21.33;100238.25;2002952;81;20176;-84
2021/04/23 12:00:32;;;;;;;6.41;1.38;;;;;;;21.21;20.77;100234.41;2002517;81;20267;-85
2021/04/23 12:03:33;;;;;;;4.44;1.49;;;;;;;20.87;21.15;100226.75;1995013;81;20253;-79
2021/04/23 12:06:35;;;;;;;6.22;1.17;;;;;;;20.63;19.53;100221.34;1989257;81;20197;-79
2021/04/23 12:09:37;;;;;;;3.92;1.10;;;;;;;20.78;21.05;100220.00;1989843;81;20205;-79
2021/04/23 12:12:41;;;;;;;3.33;1.17;;;;;;;21.16;21.39;100218.69;1988987;81;20301;-79
2021/04/23 12:15:45;;;;;;;3.05;1.00;;;;;;;21.33;20.25;100220.78;1989494;79;21191;-79
2021/04/23 12:18:50;;;;;;;3.60;1.00;;;;;;;21.55;20.12;100218.25;1989680;81;20184;-78
2021/04/23 12:21:55;;;;;;;3.89;1.10;;;;;;;21.88;19.47;100216.13;1989133;81;20277;-78
2021/04/23 12:25:36;;;;;;;4.78;0.81;;;;;;;21.88;20.86;100221.41;1991024;81;20199;-79
2021/04/23 12:28:47;;;;;;;5.81;1.16;;;;;;;21.80;19.42;100221.72;1988948;81;20640;-78
2021/04/23 12:31:50;;;;;;;3.95;0.80;;;;;;;21.51;19.52;100219.25;1989318;79;20249;-78
2021/04/23 12:34:52;;;;;;;3.58;1.01;;;;;;;21.38;18.69;100214.44;1992593;81;20195;-77
2021/04/23 12:37:54;;;;;;;3.34;0.82;;;;;;;21.67;19.44;100223.09;1988591;81;20890;-78
2021/04/23 12:40:56;;;;;;;2.20;1.10;;;;;;;21.87;19.77;100222.34;1989228;81;20201;-78
2021/04/23 12:44:04;;;;;;;8.30;1.95;;;;;;;21.87;18.82;100220.56;1988958;81;20179;-78
2021/04/23 12:47:09;;;;;;;2.15;0.91;;;;;;;21.74;17.70;100224.59;1988966;79;22982;-78
2021/04/23 12:50:12;;;;;;;2.90;0.94;;;;;;;21.53;17.91;100213.00;1988915;81;20171;-79
2021/04/23 12:53:15;;;;;;;2.79;0.98;;;;;;;21.98;19.00;100215.75;1989203;81;20233;-78
2021/04/23 12:56:24;;;;;;;3.51;1.10;;;;;;;21.99;17.76;100211.31;1988587;81;20179;-78
2021/04/23 13:00:05;;;;;;;6.90;1.10;;;;;;;22.17;18.35;100210.63;1988646;81;20168;-78
2021/04/23 13:03:07;;;;;;;3.13;0.85;;;;;;;22.30;18.45;100208.38;1983343;79;20258;-78
2021/04/23 13:06:20;;;;;;;3.25;0.82;;;;;;;22.26;17.73;100206.75;1982361;82;20212;-78
2021/04/23 13:09:30;;;;;;;1.85;0.85;;;;;;;22.05;16.16;100202.31;1983748;82;20214;-78
2021/04/23 13:12:37;;;;;;;7.28;1.00;;;;;;;22.24;18.18;100201.53;1982891;82;20214;-78
2021/04/23 13:15:40;;;;;;;3.05;1.01;;;;;;;22.36;18.04;100197.53;1984018;79;20436;-78
2021/04/23 13:18:46;;;;;;;2.71;0.91;;;;;;;22.52;17.93;100190.72;1988100;81;20179;-77
2021/04/23 13:21:48;;;;;;;4.35;1.00;;;;;;;22.51;17.45;100186.34;1986628;81;20176;-77
2021/04/23 13:25:10;;;;;;;2.56;0.77;;;;;;;22.37;16.85;100186.03;1988049;81;20253;-81
2021/04/23 13:28:17;;;;;;;3.01;0.77;;;;;;;22.01;15.88;100181.25;1987459;81;20164;-76
2021/04/23 13:31:19;;;;;;;3.60;1.05;;;;;;;21.98;16.31;100172.56;1987812;79;20204;-82
2021/04/23 13:34:21;;;;;;;1.50;0.80;;;;;;;21.77;16.26;100174.25;1999681;81;20227;-84
2021/04/23 13:37:33;;;;;;;2.49;0.66;;;;;;;21.98;16.42;100169.91;1996647;81;20172;-77
2021/04/23 13:40:35;;;;;;;3.96;0.85;;;;;;;22.12;16.68;100166.78;1987945;81;20715;-79
2021/04/23 13:43:38;;;;;;;5.38;1.02;;;;;;;22.40;17.17;100166.53;1990692;81;20195;-78
2021/04/23 13:46:48;;;;;;;3.39;1.11;;;;;;;22.57;16.97;100172.00;1990260;79;22214;-82
2021/04/23 13:49:50;;;;;;;5.56;0.88;;;;;;;22.38;15.22;100156.00;1989567;81;21027;-79
2021/04/23 13:52:52;;;;;;;2.35;0.89;;;;;;;22.21;16.88;100159.31;1991147;81;20266;-74
2021/04/23 13:56:00;;;;;;;10.71;0.86;;;;;;;22.48;17.45;100152.06;1991933;81;20179;-74
2021/04/23 13:59:04;;;;;;;2.06;0.70;;;;;;;22.59;16.56;100149.81;1990011;81;20180;-79
2021/04/23 14:02:20;;;;;;;3.51;0.73;;;;;;;22.50;14.53;100144.06;1990710;79;20909;-82
2021/04/23 14:05:22;;;;;;;1.73;0.70;;;;;;;21.93;14.82;100137.50;1992150;81;21514;-76
2021/04/23 14:08:24;;;;;;;6.93;0.80;;;;;;;21.98;16.80;100138.19;1985142;81;20187;-79
2021/04/23 14:11:26;;;;;;;3.34;0.93;;;;;;;22.07;17.46;100140.47;1994063;81;20168;-81
2021/04/23 14:14:32;;;;;;;4.21;0.86;;;;;;;22.14;16.19;100134.03;1994025;81;20207;-80
2021/04/23 14:17:33;;;;;;;2.03;0.69;;;;;;;21.79;15.90;100140.69;1987964;79;21969;-78
2021/04/23 14:20:35;;;;;;;2.46;0.96;;;;;;;21.56;15.96;100127.47;1988608;81;20213;-78
2021/04/23 14:23:37;;;;;;;4.99;0.66;;;;;;;21.54;16.77;100122.22;1989102;81;20702;-78
2021/04/23 14:26:41;;;;;;;3.96;0.88;;;;;;;21.73;16.14;100117.13;1989345;81;20216;-77
2021/04/23 14:29:43;;;;;;;2.01;0.73;;;;;;;21.54;15.46;100109.00;1989361;81;20194;-78
2021/04/23 14:32:46;;;;;;;2.20;0.63;;;;;;;21.83;16.70;100114.97;1990855;79;24787;-79